createdAt,value
2023-04-18T00:01:38.489Z,83.14
2023-04-18T00:06:41.365Z,83.15
2023-04-18T00:11:44.526Z,83.14
2023-04-18T00:16:47.706Z,83.23
2023-04-18T00:21:54.099Z,83.38
2023-04-18T00:26:57.344Z,83.05
2023-04-18T00:32:00.185Z,83.31
2023-04-18T00:37:02.981Z,83.32
2023-04-18T00:42:06.209Z,83.13
2023-04-18T00:47:09.037Z,83.48
2023-04-18T00:52:13.202Z,83.51
2023-04-18T00:57:16.564Z,83.34
2023-04-18T01:02:19.989Z,83.21
2023-04-18T01:07:22.939Z,83.00
2023-04-18T01:12:25.838Z,82.85
2023-04-18T01:17:29.835Z,83.07
2023-04-18T01:22:33.586Z,82.86
2023-04-18T01:27:36.321Z,83.11
2023-04-18T01:32:39.212Z,83.32
2023-04-18T01:37:42.227Z,83.23
2023-04-18T01:42:45.093Z,83.03
2023-04-18T01:47:48.220Z,82.95
2023-04-18T01:52:51.058Z,83.07
2023-04-18T01:57:53.899Z,83.28
2023-04-18T02:02:59.831Z,83.21
2023-04-18T02:08:02.992Z,83.15
2023-04-18T02:13:06.882Z,83.11
2023-04-18T02:18:09.843Z,83.30
2023-04-18T02:23:12.713Z,83.19
2023-04-18T02:28:15.553Z,83.01
2023-04-18T02:33:18.373Z,83.19
2023-04-18T02:38:21.564Z,83.00
2023-04-18T02:43:24.354Z,82.93
2023-04-18T02:48:27.342Z,82.81
2023-04-18T02:53:30.308Z,82.85
2023-04-18T02:58:34.894Z,82.83
2023-04-18T03:03:38.102Z,82.85
2023-04-18T03:08:41.332Z,83.10
2023-04-18T03:13:44.169Z,83.01
2023-04-18T03:18:47.052Z,82.97
2023-04-18T03:23:50.249Z,83.31
2023-04-18T03:28:53.072Z,83.08
2023-04-18T03:33:55.888Z,82.70
2023-04-18T03:38:58.712Z,82.90
2023-04-18T03:44:01.558Z,82.71
2023-04-18T03:49:04.415Z,82.88
2023-04-18T03:54:07.219Z,82.56
2023-04-18T03:59:11.200Z,82.58
2023-04-18T04:04:15.787Z,82.46
2023-04-18T04:09:19.065Z,82.47
2023-04-18T04:14:22.932Z,82.40
2023-04-18T04:19:25.787Z,82.68
2023-04-18T04:24:29.263Z,82.28
2023-04-18T04:29:32.119Z,82.48
2023-04-18T04:34:35.751Z,82.74
2023-04-18T04:39:38.728Z,82.85
2023-04-18T04:44:43.046Z,82.78
2023-04-18T04:49:46.601Z,82.84
2023-04-18T04:54:51.879Z,82.62
2023-04-18T04:59:54.725Z,82.70
2023-04-18T05:04:57.538Z,82.73
2023-04-18T05:10:00.350Z,82.86
2023-04-18T05:15:03.634Z,82.85
2023-04-18T05:20:07.403Z,83.01
2023-04-18T05:25:10.617Z,82.80
2023-04-18T05:30:13.921Z,83.21
2023-04-18T05:35:16.827Z,83.29
2023-04-18T05:40:19.726Z,83.05
2023-04-18T05:45:22.515Z,83.03
2023-04-18T05:50:25.376Z,82.83
2023-04-18T05:55:28.345Z,82.98
2023-04-18T06:00:31.575Z,83.25
2023-04-18T06:05:34.770Z,82.93
2023-04-18T06:10:39.138Z,82.87
2023-04-18T06:15:42.332Z,83.23
2023-04-18T06:20:45.417Z,83.09
2023-04-18T06:25:48.794Z,83.00
2023-04-18T06:30:51.688Z,83.08
2023-04-18T06:35:54.614Z,82.86
2023-04-18T06:40:57.454Z,82.91
2023-04-18T06:46:01.243Z,82.75
2023-04-18T06:51:04.510Z,82.69
2023-04-18T06:56:07.869Z,82.20
2023-04-18T07:01:10.771Z,81.85
2023-04-18T07:06:13.668Z,81.96
2023-04-18T07:11:18.616Z,81.86
2023-04-18T07:16:21.663Z,81.93
2023-04-18T07:21:24.567Z,81.79
2023-04-18T07:26:27.751Z,81.65
2023-04-18T07:31:32.038Z,81.51
2023-04-18T07:36:35.045Z,81.05
2023-04-18T07:41:37.862Z,81.06
2023-04-18T07:46:40.935Z,81.19
2023-04-18T07:51:43.930Z,80.66
2023-04-18T07:56:46.851Z,79.97
2023-04-18T08:01:49.792Z,79.77
2023-04-18T08:06:52.995Z,79.15
2023-04-18T08:11:56.947Z,79.54
2023-04-18T08:16:59.806Z,79.50
2023-04-18T08:22:10.706Z,79.61
2023-04-18T08:27:13.648Z,79.33
2023-04-18T08:32:16.486Z,79.18
2023-04-18T08:37:19.422Z,79.14
2023-04-18T08:42:23.517Z,78.84
2023-04-18T08:47:30.373Z,79.03
2023-04-18T08:52:36.203Z,79.13
2023-04-18T08:57:39.978Z,78.87
2023-04-18T09:02:43.861Z,78.40
2023-04-18T09:07:49.639Z,77.26
2023-04-18T09:12:52.550Z,75.78
2023-04-18T09:18:02.705Z,74.87
2023-04-18T09:23:10.670Z,74.20
2023-04-18T09:28:28.899Z,73.58
2023-04-18T09:33:36.851Z,73.92
2023-04-18T09:38:41.314Z,73.44
2023-04-18T09:43:47.256Z,71.98
2023-04-18T09:48:50.331Z,70.77
2023-04-18T09:53:53.976Z,70.84
2023-04-18T09:59:08.450Z,70.35
2023-04-18T10:04:12.902Z,70.39
2023-04-18T10:09:16.484Z,69.21
2023-04-18T10:14:19.921Z,68.88
2023-04-18T10:19:26.102Z,68.30
2023-04-18T10:24:56.134Z,68.29
2023-04-18T10:29:59.121Z,68.01
2023-04-18T10:35:02.213Z,68.15
2023-04-18T10:40:07.641Z,67.38
2023-04-18T10:45:24.742Z,66.55
2023-04-18T10:50:27.569Z,66.65
2023-04-18T10:55:31.547Z,66.83
2023-04-18T11:00:34.766Z,66.05
2023-04-18T11:05:37.797Z,64.12
2023-04-18T11:10:43.764Z,64.17
2023-04-18T11:15:46.589Z,63.98
2023-04-18T11:20:51.686Z,63.35
2023-04-18T11:25:56.527Z,62.01
2023-04-18T11:31:02.939Z,61.87
2023-04-18T11:36:06.826Z,61.66
2023-04-18T11:41:16.421Z,61.04
2023-04-18T11:46:19.283Z,60.35
2023-04-18T11:51:38.833Z,60.20
2023-04-18T11:56:48.961Z,60.81
2023-04-18T12:02:14.795Z,61.99
2023-04-18T12:07:39.508Z,63.45
2023-04-18T12:12:49.959Z,64.38
2023-04-18T12:17:57.114Z,64.84
2023-04-18T12:23:00.055Z,65.31
2023-04-18T12:28:18.629Z,64.08
2023-04-18T12:33:21.670Z,64.35
2023-04-18T12:38:24.626Z,63.44
2023-04-18T12:43:27.550Z,61.03
2023-04-18T12:48:30.386Z,61.21
2023-04-18T12:53:33.209Z,61.90
2023-04-18T12:58:36.134Z,62.25
2023-04-18T13:03:39.317Z,63.59
2023-04-18T13:08:42.752Z,63.79
2023-04-18T13:13:45.575Z,63.56
2023-04-18T13:18:48.368Z,63.87
2023-04-18T13:23:51.300Z,65.32
2023-04-18T13:28:54.104Z,65.61
2023-04-18T13:33:57.632Z,65.88
2023-04-18T13:39:01.539Z,66.33
2023-04-18T13:44:04.696Z,66.94
2023-04-18T13:49:07.560Z,66.87
2023-04-18T13:54:10.746Z,66.79
2023-04-18T13:59:13.785Z,66.12
2023-04-18T14:04:17.423Z,65.11
2023-04-18T14:09:20.472Z,64.82
2023-04-18T14:14:23.545Z,65.02
2023-04-18T14:19:27.616Z,64.47
2023-04-18T14:24:30.444Z,64.52
2023-04-18T14:29:33.257Z,63.17
2023-04-18T14:34:37.380Z,62.45
2023-04-18T14:39:41.717Z,62.66
2023-04-18T14:44:44.573Z,61.88
2023-04-18T14:49:47.388Z,62.80
2023-04-18T14:54:50.180Z,62.16
2023-04-18T14:59:54.987Z,62.01
2023-04-18T15:04:59.552Z,62.18
2023-04-18T15:10:02.482Z,62.54
2023-04-18T15:15:06.952Z,61.89
2023-04-18T15:20:10.561Z,61.55
2023-04-18T15:25:16.460Z,61.62
2023-04-18T15:30:19.880Z,61.44
2023-04-18T15:35:23.132Z,61.11
2023-04-18T15:40:28.281Z,61.00
2023-04-18T15:45:31.834Z,61.10
2023-04-18T15:50:34.544Z,61.83
2023-04-18T15:55:37.463Z,61.63
2023-04-18T16:00:40.265Z,61.65
2023-04-18T16:05:43.329Z,62.21
2023-04-18T16:10:52.208Z,61.88
2023-04-18T16:15:55.100Z,62.71
2023-04-18T16:20:58.388Z,63.73
2023-04-18T16:26:01.255Z,64.00
2023-04-18T16:31:07.172Z,64.24
2023-04-18T16:36:12.476Z,65.02
2023-04-18T16:41:15.430Z,64.87
2023-04-18T16:46:19.158Z,65.23
2023-04-18T16:51:22.469Z,66.03
2023-04-18T16:56:25.346Z,66.03
2023-04-18T17:01:28.296Z,66.25
2023-04-18T17:06:32.644Z,66.19
2023-04-18T17:11:39.571Z,66.42
2023-04-18T17:16:43.066Z,66.35
2023-04-18T17:21:46.421Z,66.23
2023-04-18T17:26:49.565Z,65.84
2023-04-18T17:31:52.477Z,66.20
2023-04-18T17:36:55.329Z,66.69
2023-04-18T17:42:02.259Z,66.45
2023-04-18T17:47:07.354Z,66.47
2023-04-18T17:52:10.412Z,66.77
2023-04-18T17:57:13.239Z,66.73
2023-04-18T18:02:16.645Z,66.99
2023-04-18T18:07:19.527Z,67.29
2023-04-18T18:12:22.347Z,67.49
2023-04-18T18:17:25.195Z,67.50
2023-04-18T18:22:28.672Z,67.49
2023-04-18T18:27:31.842Z,67.08
2023-04-18T18:32:34.744Z,66.52
2023-04-18T18:37:37.661Z,66.67
2023-04-18T18:42:41.239Z,66.75
2023-04-18T18:47:43.935Z,66.66
2023-04-18T18:52:46.944Z,66.38
2023-04-18T18:57:49.837Z,66.63
2023-04-18T19:02:52.965Z,66.52
2023-04-18T19:07:56.022Z,66.34
2023-04-18T19:13:00.286Z,66.38
2023-04-18T19:18:03.212Z,66.09
2023-04-18T19:23:06.127Z,66.26
2023-04-18T19:28:09.036Z,66.07
2023-04-18T19:33:12.846Z,66.03
2023-04-18T19:38:15.761Z,66.11
2023-04-18T19:43:18.724Z,66.32
2023-04-18T19:48:21.564Z,66.36
2023-04-18T19:53:24.500Z,66.53
2023-04-18T19:58:39.791Z,66.56
2023-04-18T20:03:43.064Z,66.41
2023-04-18T20:08:46.291Z,66.47
2023-04-18T20:13:49.432Z,66.41
2023-04-18T20:18:54.811Z,66.17
2023-04-18T20:23:59.355Z,66.11
2023-04-18T20:29:03.780Z,66.30
2023-04-18T20:34:06.724Z,66.30
2023-04-18T20:39:09.681Z,66.60
2023-04-18T20:44:13.873Z,66.51
2023-04-18T20:49:16.946Z,66.56
2023-04-18T20:54:19.984Z,66.66
2023-04-18T20:59:22.838Z,66.70
2023-04-18T21:04:26.631Z,66.91
2023-04-18T21:09:36.437Z,66.81
2023-04-18T21:14:39.914Z,66.47
2023-04-18T21:19:51.100Z,66.22
2023-04-18T21:24:53.924Z,66.17
2023-04-18T21:29:57.028Z,66.25
2023-04-18T21:35:00.742Z,66.57
2023-04-18T21:40:04.665Z,66.64
2023-04-18T21:45:11.172Z,66.54
2023-04-18T21:50:14.211Z,66.76
2023-04-18T21:55:17.930Z,66.62
2023-04-18T22:00:20.740Z,66.55
2023-04-18T22:05:23.545Z,66.73
2023-04-18T22:10:26.412Z,66.59
2023-04-18T22:15:30.187Z,66.77
2023-04-18T22:20:33.820Z,66.66
2023-04-18T22:25:36.939Z,66.50
2023-04-18T22:30:39.956Z,66.46
2023-04-18T22:35:42.827Z,66.49
2023-04-18T22:40:45.646Z,66.57
2023-04-18T22:45:48.549Z,66.55
2023-04-18T22:50:51.526Z,66.66
2023-04-18T22:55:54.349Z,66.88
2023-04-18T23:00:57.281Z,66.89
2023-04-18T23:06:01.272Z,66.84
2023-04-18T23:11:04.130Z,66.86
2023-04-18T23:16:08.266Z,67.20
2023-04-18T23:21:11.187Z,67.25
2023-04-18T23:26:15.331Z,67.65
2023-04-18T23:31:19.234Z,67.72
2023-04-18T23:36:22.129Z,67.83
2023-04-18T23:41:25.012Z,68.06
2023-04-18T23:46:27.870Z,67.85
2023-04-18T23:51:31.172Z,67.83
2023-04-18T23:56:34.852Z,67.80
